Time;durP1;ratioP1;P1;durP2;ratioP2;P2;SDS_P1;SDS_P2;PMS_P1;PMS_P2;Temp;Humidity;BMP_temperature;BMP_pressure;BME280_temperature;BME280_humidity;BME280_pressure;Samples;Min_cycle;Max_cycle;Signal;HPM_P1;HPM_P2
2023/08/12 00:01:30;;;;;;;5.07;3.85;;;;;;;-141.84;67.77;21220.47;5022867;28;20252;-62
2023/08/12 00:03:59;;;;;;;6.63;4.03;;;;;;;-141.84;67.78;21192.03;5037524;28;20205;-63
2023/08/12 00:06:28;;;;;;;6.57;3.85;;;;;;;-141.84;68.23;21204.22;5035329;28;20644;-63
2023/08/12 00:08:56;;;;;;;6.22;3.78;;;;;;;-141.84;68.25;21187.97;5027464;28;20316;-62
2023/08/12 00:11:25;;;;;;;4.60;3.80;;;;;;;-141.84;68.33;21131.03;5034166;28;20221;-62
2023/08/12 00:13:53;;;;;;;7.45;4.05;;;;;;;-141.84;68.68;21190.00;5041954;28;20225;-62
2023/08/12 00:16:23;;;;;;;5.10;3.90;;;;;;;-141.84;68.74;21208.28;5034487;28;20225;-62
2023/08/12 00:18:52;;;;;;;4.65;3.60;;;;;;;-141.84;69.04;21155.44;5044810;28;20212;-62
2023/08/12 00:21:20;;;;;;;4.20;3.63;;;;;;;-141.84;69.08;21167.63;5042415;28;20651;-62
2023/08/12 00:23:49;;;;;;;6.53;4.32;;;;;;;-141.84;69.34;21169.66;5042247;28;20332;-61
2023/08/12 00:26:18;;;;;;;4.32;3.88;;;;;;;-141.84;69.30;21120.88;5041427;28;20224;-63
2023/08/12 00:28:49;;;;;;;8.07;3.60;;;;;;;-141.84;69.33;21173.72;5039819;28;20655;-62
2023/08/12 00:31:18;;;;;;;5.28;3.95;;;;;;;-141.84;69.42;21151.34;5031127;28;20241;-61
2023/08/12 00:33:48;;;;;;;4.30;3.90;;;;;;;-141.84;69.51;21124.94;5022967;28;20610;-62
2023/08/12 00:36:16;;;;;;;6.22;4.10;;;;;;;-141.84;69.86;21110.69;5022451;28;20281;-62
2023/08/12 00:38:45;;;;;;;5.28;3.80;;;;;;;-141.84;70.13;21131.03;5017317;28;20240;-62
2023/08/12 00:41:13;;;;;;;5.65;3.70;;;;;;;-141.84;70.13;21124.94;5022399;28;20312;-62
2023/08/12 00:43:42;;;;;;;4.80;4.00;;;;;;;-141.84;70.69;21065.97;5026741;28;20286;-61
2023/08/12 00:46:10;;;;;;;5.82;4.00;;;;;;;-141.84;71.10;21061.91;5041970;28;20242;-62
2023/08/12 00:48:40;;;;;;;4.53;3.55;;;;;;;-141.84;71.56;21063.94;5034064;28;20208;-62
2023/08/12 00:51:09;;;;;;;7.78;4.13;;;;;;;-141.84;71.89;21065.97;5042236;28;20312;-62
2023/08/12 00:53:38;;;;;;;5.05;3.90;;;;;;;-141.84;72.04;21041.56;5042162;28;20232;-63
2023/08/12 00:56:06;;;;;;;6.40;4.10;;;;;;;-141.84;72.15;21063.94;5041359;28;20319;-61
2023/08/12 00:58:35;;;;;;;8.60;4.07;;;;;;;-141.84;72.19;21084.28;5033346;28;20272;-62
2023/08/12 01:01:04;;;;;;;6.63;4.47;;;;;;;-141.84;72.58;21033.44;5042275;28;20197;-63
2023/08/12 01:03:32;;;;;;;4.40;3.60;;;;;;;-141.84;72.58;21002.94;5042641;28;20240;-62
2023/08/12 01:06:01;;;;;;;5.05;4.05;;;;;;;-141.84;72.56;21045.63;5041844;28;20312;-61
2023/08/12 01:08:32;;;;;;;5.82;4.15;;;;;;;-141.84;72.68;21015.16;5033706;28;20249;-62
2023/08/12 01:11:07;;;;;;;5.72;4.07;;;;;;;-141.84;73.16;21011.09;5041633;28;20319;-61
2023/08/12 01:13:46;;;;;;;6.72;4.60;;;;;;;-141.84;73.34;20996.84;5041644;28;20315;-61
2023/08/12 01:16:17;;;;;;;6.40;4.00;;;;;;;-141.84;73.73;21004.97;5041849;28;20728;-62
2023/08/12 01:18:46;;;;;;;8.07;4.57;;;;;;;-141.84;73.82;20998.88;5046232;28;20684;-62
2023/08/12 01:21:18;;;;;;;5.32;4.47;;;;;;;-141.84;73.72;20974.50;5041437;28;20237;-61
2023/08/12 01:23:48;;;;;;;7.22;4.10;;;;;;;-141.84;73.64;21007.00;5041941;28;20233;-63
2023/08/12 01:26:17;;;;;;;5.03;4.07;;;;;;;-141.84;73.85;21025.31;5041222;28;20311;-62
2023/08/12 01:28:45;;;;;;;4.95;4.18;;;;;;;-141.84;73.73;21009.03;5036586;28;20314;-62
2023/08/12 01:31:20;;;;;;;4.80;4.40;;;;;;;-141.84;73.64;21004.97;5031428;28;20288;-62
2023/08/12 01:33:56;;;;;;;5.95;4.47;;;;;;;-141.84;73.50;21013.13;5022436;28;20217;-62
2023/08/12 01:36:26;;;;;;;6.47;4.22;;;;;;;-141.84;73.60;21029.38;5013749;28;20229;-62
2023/08/12 01:38:59;;;;;;;4.85;4.10;;;;;;;-141.84;73.65;20994.81;5021866;28;20234;-62
2023/08/12 01:41:32;;;;;;;4.45;3.80;;;;;;;-141.84;73.65;21015.16;5033479;28;20282;-62
2023/08/12 01:44:00;;;;;;;5.15;4.32;;;;;;;-141.84;73.79;21043.59;5041674;28;20252;-62
2023/08/12 01:46:29;;;;;;;9.20;5.15;;;;;;;-141.84;73.84;21037.50;5033931;28;20599;-61
2023/08/12 01:48:57;;;;;;;4.57;4.05;;;;;;;-141.84;73.75;21017.19;5042307;28;20202;-61
2023/08/12 01:51:26;;;;;;;4.32;3.92;;;;;;;-141.84;73.73;21049.72;5041801;28;20304;-62
2023/08/12 01:53:58;;;;;;;4.32;3.92;;;;;;;-141.84;73.81;21049.72;5041757;28;20271;-61
2023/08/12 01:56:26;;;;;;;5.15;4.65;;;;;;;-141.84;73.80;21053.78;5032470;28;20253;-62
2023/08/12 01:58:55;;;;;;;5.20;4.20;;;;;;;-141.84;73.60;21078.16;5043814;28;20311;-61
2023/08/12 02:01:23;;;;;;;5.40;4.47;;;;;;;-141.84;73.71;21078.16;5045395;28;20297;-62
2023/08/12 02:03:52;;;;;;;5.28;4.47;;;;;;;-141.84;73.99;21065.97;5045429;28;20209;-61
2023/08/12 02:06:20;;;;;;;5.72;4.10;;;;;;;-141.84;74.22;21039.53;5041534;28;20240;-61
2023/08/12 02:08:50;;;;;;;8.73;4.90;;;;;;;-141.84;74.06;21045.63;5030605;28;20792;-62
2023/08/12 02:11:20;;;;;;;4.55;4.15;;;;;;;-141.84;74.29;21053.78;5024435;28;20299;-61
2023/08/12 02:13:48;;;;;;;7.00;4.55;;;;;;;-141.84;74.38;21047.69;5031487;28;20229;-62
2023/08/12 02:16:17;;;;;;;5.25;4.55;;;;;;;-141.84;74.14;21019.22;5044867;28;20267;-61
2023/08/12 02:18:45;;;;;;;4.88;4.45;;;;;;;-141.84;74.25;21065.97;5047728;28;20222;-62
2023/08/12 02:21:14;;;;;;;6.43;4.85;;;;;;;-141.84;74.59;21009.03;5044154;28;20707;-62
2023/08/12 02:23:44;;;;;;;4.88;4.38;;;;;;;-141.84;74.87;20990.75;5044181;28;20706;-62
2023/08/12 02:26:12;;;;;;;5.70;4.82;;;;;;;-141.84;75.13;21002.94;5044276;28;20252;-62
2023/08/12 02:28:42;;;;;;;5.82;4.68;;;;;;;-141.84;75.44;21009.03;5036428;28;20415;-62
2023/08/12 02:31:10;;;;;;;5.10;4.60;;;;;;;-141.84;75.55;20996.84;5043231;28;20228;-62
2023/08/12 02:33:39;;;;;;;6.00;4.78;;;;;;;-141.84;75.75;20966.34;5024944;28;20293;-62
2023/08/12 02:36:08;;;;;;;5.80;4.75;;;;;;;-141.84;75.82;20950.09;5024533;28;20796;-62
2023/08/12 02:38:36;;;;;;;4.75;4.30;;;;;;;-141.84;75.95;20996.84;5029304;28;20241;-62
2023/08/12 02:41:04;;;;;;;4.88;4.47;;;;;;;-141.84;75.84;20986.69;5035996;28;20233;-62
2023/08/12 02:43:33;;;;;;;6.32;4.60;;;;;;;-141.84;76.05;20986.69;5028522;28;20322;-62
2023/08/12 02:46:03;;;;;;;5.20;4.70;;;;;;;-141.84;76.15;20982.63;5044279;28;20211;-62
2023/08/12 02:48:32;;;;;;;7.28;4.60;;;;;;;-141.84;76.26;20960.25;5016683;28;20635;-61
2023/08/12 02:51:00;;;;;;;7.03;5.07;;;;;;;-141.84;76.16;20994.81;5024067;28;20304;-62
2023/08/12 02:53:29;;;;;;;5.65;4.90;;;;;;;-141.84;76.09;20952.13;5035878;28;20346;-61
2023/08/12 02:55:57;;;;;;;5.00;4.50;;;;;;;-141.84;76.19;20988.72;5044111;28;20312;-62
2023/08/12 02:58:26;;;;;;;6.75;4.70;;;;;;;-141.84;76.14;21000.91;5035646;28;20352;-63
2023/08/12 03:00:56;;;;;;;5.10;4.40;;;;;;;-141.84;75.96;21000.91;5044204;28;20668;-63
2023/08/12 03:03:26;;;;;;;7.28;4.20;;;;;;;-141.84;75.86;20998.88;5043831;28;20232;-61
2023/08/12 03:05:54;;;;;;;5.53;4.55;;;;;;;-141.84;75.70;20990.75;5044130;28;20264;-62
2023/08/12 03:08:23;;;;;;;6.65;5.03;;;;;;;-141.84;75.50;21021.25;5036007;28;20312;-62
2023/08/12 03:10:51;;;;;;;5.65;4.40;;;;;;;-141.84;75.52;20966.34;5043810;28;20321;-61
2023/08/12 03:13:20;;;;;;;5.50;4.82;;;;;;;-141.84;75.21;21027.34;5043832;28;20287;-62
2023/08/12 03:15:48;;;;;;;5.32;4.88;;;;;;;-141.84;75.26;21009.03;5044532;28;20560;-63
2023/08/12 03:18:17;;;;;;;4.88;4.47;;;;;;;-141.84;75.18;21021.25;5051489;28;20266;-62
2023/08/12 03:20:47;;;;;;;5.55;4.82;;;;;;;-141.84;75.00;21009.03;5044497;28;20279;-62
2023/08/12 03:23:16;;;;;;;6.63;4.65;;;;;;;-141.84;74.94;21011.09;5043242;28;20324;-62
2023/08/12 03:25:44;;;;;;;5.55;4.90;;;;;;;-141.84;74.50;21029.38;5043233;28;20229;-62
2023/08/12 03:28:12;;;;;;;5.30;4.80;;;;;;;-141.84;74.47;21059.88;5043438;28;20210;-62
2023/08/12 03:30:41;;;;;;;5.65;4.45;;;;;;;-141.84;74.22;21045.63;5035540;28;20374;-62
2023/08/12 03:33:09;;;;;;;6.63;4.97;;;;;;;-141.84;73.85;21045.63;5025857;28;20726;-62
2023/08/12 03:35:38;;;;;;;5.22;4.80;;;;;;;-141.84;73.87;21068.00;5036663;28;20237;-61
2023/08/12 03:38:08;;;;;;;4.60;4.20;;;;;;;-141.84;74.14;21009.03;5034572;28;20272;-62
2023/08/12 03:40:39;;;;;;;4.95;4.55;;;;;;;-141.84;73.87;21053.78;5019388;28;20233;-61
2023/08/12 03:43:08;;;;;;;4.70;4.15;;;;;;;-141.84;74.06;21033.44;5042994;28;20712;-62
2023/08/12 03:45:42;;;;;;;4.90;4.50;;;;;;;-141.84;73.77;21041.56;5043429;28;20205;-60
2023/08/12 03:48:10;;;;;;;4.82;4.43;;;;;;;-141.84;73.84;21076.13;5042955;28;20647;-62
2023/08/12 03:50:40;;;;;;;5.63;5.00;;;;;;;-141.84;73.68;21035.47;5034964;28;20240;-62
2023/08/12 03:53:09;;;;;;;6.00;4.32;;;;;;;-141.84;73.73;21059.88;5042991;28;20225;-62
2023/08/12 03:55:38;;;;;;;4.82;4.28;;;18.40;99.90;;;-141.84;73.54;21065.97;5042569;28;20236;-62
2023/08/12 03:58:06;;;;;;;6.80;4.75;;;18.40;99.90;;;-141.84;73.19;21053.78;5042547;28;20229;-62
2023/08/12 04:00:34;;;;;;;5.00;4.55;;;18.50;99.90;;;-141.84;72.88;21116.78;5035158;28;20262;-61
2023/08/12 04:03:03;;;;;;;5.18;4.40;;;18.50;99.90;;;-141.84;73.17;21057.84;5042624;28;20672;-62
2023/08/12 04:05:31;;;;;;;5.70;4.93;;;18.50;99.90;;;-141.84;73.01;21076.13;5042521;28;20312;-61
2023/08/12 04:07:59;;;;;;;5.13;4.60;;;18.60;99.90;;;-141.84;71.88;21137.13;5042295;28;20311;-62
2023/08/12 04:10:29;;;;;;;4.90;4.50;;;18.70;99.90;;;-141.84;72.05;21131.03;5034697;28;20233;-62
2023/08/12 04:12:57;;;;;;;4.93;4.53;;;18.70;99.90;;;-141.84;72.08;21086.31;5042996;28;20304;-63
2023/08/12 04:15:25;;;;;;;4.80;4.40;;;18.70;99.90;;;-141.84;71.90;21102.56;5042335;28;20320;-62
2023/08/12 04:17:53;;;;;;;4.50;4.10;;;18.70;99.90;;;-141.84;72.02;21129.00;5046758;28;20307;-62
2023/08/12 04:20:22;;;;;;;5.07;4.57;;;18.80;99.90;;;-141.84;72.15;21118.84;5039525;28;20233;-63
2023/08/12 04:22:50;;;;;;;5.15;4.65;;;18.80;99.90;;;-141.84;72.04;21118.84;5042181;28;20294;-62
2023/08/12 04:25:18;;;;;;;4.97;4.43;;;18.80;99.90;;;-141.84;71.60;21159.50;5042261;28;20202;-62
2023/08/12 04:27:49;;;;;;;5.90;5.25;;;18.80;99.90;;;-141.84;71.02;21171.69;5042914;28;20244;-62
2023/08/12 04:30:18;;;;;;;7.18;4.70;;;18.90;99.90;;;-141.84;70.57;21198.13;5042028;28;20221;-62
2023/08/12 04:32:46;;;;;;;5.05;4.03;;;19.00;99.90;;;-141.84;70.64;21198.13;5027665;28;20268;-64
2023/08/12 04:35:15;;;;;;;4.90;4.43;;;19.00;99.90;;;-141.84;70.29;21236.75;5022193;28;20232;-61
2023/08/12 04:37:43;;;;;;;8.02;4.07;;;19.10;99.90;;;-141.84;70.29;21196.09;5027350;28;20221;-62
2023/08/12 04:40:12;;;;;;;4.78;4.38;;;19.20;99.90;;;-141.84;70.12;21236.75;5040661;28;20228;-62
2023/08/12 04:42:40;;;;;;;4.45;4.15;;;19.20;99.90;;;-141.84;70.35;21210.31;5014234;28;20271;-62
2023/08/12 04:45:11;;;;;;;4.78;4.38;;;19.20;99.90;;;-141.84;69.50;21216.41;5039376;28;20306;-62
2023/08/12 04:47:39;;;;;;;4.70;4.30;;;19.30;99.90;;;-141.84;69.63;21289.59;5041780;28;20314;-62
2023/08/12 04:50:08;;;;;;;4.50;4.10;;;19.40;99.90;;;-141.84;69.96;21220.47;5039917;28;20229;-63
2023/08/12 04:52:36;;;;;;;4.93;4.53;;;19.40;99.90;;;-141.84;69.53;21253.00;5034000;28;20229;-61
2023/08/12 04:55:06;;;;;;;4.65;4.25;;;19.40;99.90;;;-141.84;69.37;21287.56;5041680;28;20236;-61
2023/08/12 04:57:34;;;;;;;4.60;4.20;;;19.50;99.90;;;-141.84;68.17;21360.78;5056305;28;20244;-63
2023/08/12 05:00:03;;;;;;;4.85;4.45;;;19.60;99.90;;;-141.84;67.91;21328.25;5041223;28;20673;-63
2023/08/12 05:02:32;;;;;;;4.95;4.55;;;19.70;99.90;;;-141.84;67.96;21352.63;5034192;28;20587;-61
2023/08/12 05:05:01;;;;;;;4.60;4.20;;;19.80;99.90;;;-141.84;67.65;21383.13;5048672;28;20229;-64
2023/08/12 05:07:31;;;;;;;5.82;4.60;;;19.90;99.90;;;-141.84;66.97;21433.97;5062234;28;20319;-62
2023/08/12 05:09:59;;;;;;;4.93;3.92;;;20.00;99.90;;;-141.84;67.14;21448.19;5061779;28;20208;-61
2023/08/12 05:12:27;;;;;;;4.30;3.97;;;20.10;99.90;;;-141.84;66.98;21442.09;5050107;28;20267;-61
2023/08/12 05:14:58;;;;;;;5.00;4.50;;;20.20;99.90;;;-141.84;66.71;21464.47;5026046;28;20265;-62
2023/08/12 05:17:26;;;;;;;4.22;3.83;;;20.20;99.90;;;-141.84;66.58;21446.16;5023005;28;20276;-62
2023/08/12 05:19:55;;;;;;;4.78;4.30;;;20.30;99.90;;;-141.84;66.30;21484.78;5030674;28;20291;-62
2023/08/12 05:22:24;;;;;;;4.72;4.32;;;20.30;99.90;;;-141.84;66.06;21472.59;5016891;28;20276;-62
2023/08/12 05:24:52;;;;;;;4.97;4.57;;;20.40;99.90;;;-141.84;66.10;21466.50;5041846;28;20244;-62
2023/08/12 05:27:20;;;;;;;4.53;4.13;;;20.40;99.90;;;-141.84;66.61;21442.09;5041503;28;20614;-62
2023/08/12 05:29:48;;;;;;;4.35;4.00;;;20.40;99.90;;;-141.84;66.31;21450.22;5040511;28;20769;-63
2023/08/12 05:32:16;;;;;;;4.28;3.92;;;20.30;99.90;;;-141.84;66.63;21492.94;5041494;28;20302;-62
2023/08/12 05:34:45;;;;;;;4.72;4.25;;;20.30;99.90;;;-141.84;66.26;21484.78;5040497;28;20716;-62
2023/08/12 05:37:14;;;;;;;4.43;4.03;;;20.40;99.90;;;-141.84;66.02;21476.66;5045664;28;20305;-62
2023/08/12 05:39:43;;;;;;;4.80;4.30;;;20.40;99.90;;;-141.84;65.35;21555.97;5045881;28;20225;-61
2023/08/12 05:42:11;;;;;;;4.25;3.95;;;20.50;99.90;;;-141.84;65.60;21551.91;5045386;28;20320;-62
2023/08/12 05:44:42;;;;;;;4.43;4.03;;;20.60;99.90;;;-141.84;64.58;21616.97;5036864;28;20233;-62
2023/08/12 05:47:11;;;;;;;4.60;4.22;;;20.80;99.90;;;-141.84;62.80;21741.00;5036161;28;20257;-61
2023/08/12 05:49:39;;;;;;;4.50;4.20;;;21.00;99.90;;;-141.84;62.42;21753.19;5030589;28;20244;-62
2023/08/12 05:52:07;;;;;;;6.13;4.35;;;21.30;99.90;;;-141.84;61.17;21871.13;5045144;28;20672;-62
2023/08/12 05:54:37;;;;;;;4.72;4.20;;;21.60;99.90;;;-141.84;59.63;21968.72;5037955;28;20216;-62
2023/08/12 05:57:05;;;;;;;5.65;4.22;;;21.90;99.90;;;-141.84;59.27;22072.44;5044774;28;20255;-63
2023/08/12 05:59:33;;;;;;;4.28;3.88;;;22.20;99.90;;;-141.84;57.00;22172.09;5044169;28;20761;-61
2023/08/12 06:02:02;;;;;;;5.35;4.80;;;22.70;99.90;;;-141.84;57.08;22241.22;5045063;28;20307;-63
2023/08/12 06:04:30;;;;;;;4.75;4.30;;;22.80;99.90;;;-141.84;57.19;22257.50;5037363;28;20229;-62
2023/08/12 06:06:58;;;;;;;5.03;3.80;;;23.00;99.90;;;-141.84;56.25;22334.78;5045422;28;20634;-63
2023/08/12 06:09:26;;;;;;;4.68;4.13;;;23.20;99.90;;;-141.84;55.90;22330.72;5043307;28;20316;-62
2023/08/12 06:11:56;;;;;;;4.65;4.25;;;23.40;99.90;;;-141.84;55.91;22383.59;5043634;28;20229;-62
2023/08/12 06:14:24;;;;;;;5.00;3.90;;;;;;;-141.84;55.82;22428.31;5034730;28;20299;-63
2023/08/12 06:16:53;;;;;;;4.72;4.05;;;;;;;-141.84;54.30;22525.94;5043129;28;20668;-63
2023/08/12 06:19:25;;;;;;;4.47;4.10;;;;;;;-141.84;53.95;22515.78;5053075;28;20236;-63
2023/08/12 06:21:54;;;;;;;4.40;4.05;;;;;;;-141.84;53.33;22595.09;5042244;28;20240;-61
2023/08/12 06:24:22;;;;;;;4.57;4.05;;;;;;;-141.84;54.10;22513.75;5036783;28;20237;-63
2023/08/12 06:26:51;;;;;;;4.97;3.90;;;;;;;-141.84;55.11;22446.63;5044730;28;20264;-62
2023/08/12 06:29:20;;;;;;;7.63;4.80;;;;;;;-141.84;55.50;22412.06;5043532;28;20672;-62
2023/08/12 06:31:49;;;;;;;4.72;4.32;;;;;;;-141.84;56.63;22290.03;5028941;28;20605;-63
2023/08/12 06:34:17;;;;;;;4.47;4.07;;;;;;;-141.84;57.50;22212.75;5024664;28;20210;-63
2023/08/12 06:36:46;;;;;;;4.43;4.13;;;;;;;-141.84;58.24;22188.34;5022274;28;20719;-62
2023/08/12 06:39:14;;;;;;;4.45;4.07;;;;;;;-141.84;58.15;22214.78;5024500;28;20330;-61
2023/08/12 06:41:43;;;;;;;4.25;3.90;;;;;;;-141.84;58.32;22200.56;5024628;28;20234;-63
2023/08/12 06:44:11;;;;;;;3.88;3.58;;;;;;;-141.84;58.40;22200.56;5023051;28;20233;-62
2023/08/12 06:46:42;;;;;;;4.50;3.90;;;;;;;-141.84;58.27;22253.44;5020338;28;20229;-62
2023/08/12 06:49:10;;;;;;;4.00;3.70;;;;;;;-141.84;58.33;22243.25;5044099;28;20267;-62
2023/08/12 06:51:39;;;;;;;4.15;3.85;;;;;;;-141.84;58.00;22283.94;5044605;28;20694;-62
2023/08/12 06:54:07;;;;;;;4.40;4.10;;;;;;;-141.84;58.18;22265.63;5061108;28;20327;-61
2023/08/12 06:56:35;;;;;;;4.45;4.05;;;;;;;-141.84;58.18;22296.13;5043406;28;20279;-62
2023/08/12 06:59:04;;;;;;;5.78;4.57;;;;;;;-141.84;58.11;22229.03;5018222;28;20330;-63
2023/08/12 07:01:33;;;;;;;4.05;3.65;;;;;;;-141.84;58.82;22208.69;5004019;28;20328;-62
2023/08/12 07:04:03;;;;;;;3.97;3.67;;;;;;;-141.84;59.34;22151.75;5004975;28;20225;-62
2023/08/12 07:06:31;;;;;;;6.10;4.30;;;;;;;-141.84;59.93;22090.75;4996881;28;20230;-61
2023/08/12 07:09:00;;;;;;;4.40;4.00;;;;;;;-141.84;60.25;22098.88;5004313;28;20230;-61
2023/08/12 07:11:28;;;;;;;4.35;4.03;;;;;;;-141.84;60.12;22090.75;5004054;28;20238;-64
2023/08/12 07:13:57;;;;;;;4.45;4.00;;;;;;;-141.84;60.20;22107.00;5018799;28;20226;-62
2023/08/12 07:16:25;;;;;;;4.78;4.35;;;;;;;-141.84;60.00;22145.66;5018598;28;20279;-63
2023/08/12 07:18:54;;;;;;;4.47;4.03;;;;;;;-141.84;59.74;22170.06;5054184;28;20208;-62
2023/08/12 07:21:24;;;;;;;4.28;3.88;;;;;;;-141.84;58.88;22241.22;5043654;28;20241;-62
2023/08/12 07:23:52;;;;;;;3.63;3.33;;;;;;;-141.84;59.02;22265.63;5043187;28;20613;-62
2023/08/12 07:26:31;;;;;;;4.30;3.90;;;;;;;-141.84;58.46;22285.97;5035331;28;20229;-62
2023/08/12 07:29:00;;;;;;;5.20;4.80;;;;;;;-141.84;58.54;22296.13;5031134;28;20240;-62
2023/08/12 07:31:28;;;;;;;5.45;4.20;;;;;;;-141.84;58.60;22298.16;5032129;28;20660;-63
2023/08/12 07:33:57;;;;;;;5.25;4.85;;;;;;;-141.84;58.70;22306.31;5024061;28;20202;-62
2023/08/12 07:36:27;;;;;;;5.13;4.70;;;;;;;-141.84;58.30;22342.91;5015696;28;20263;-63
2023/08/12 07:38:55;;;;;;;4.93;4.13;;;;;;;-141.84;58.14;22334.78;5039123;28;20704;-63
2023/08/12 07:41:27;;;;;;;4.55;4.15;;;;;;;-141.84;58.21;22344.94;5043032;28;20620;-63
2023/08/12 07:43:55;;;;;;;4.47;4.07;;;;;;;-141.84;58.05;22397.81;5042606;28;20324;-63
2023/08/12 07:46:24;;;;;;;4.15;3.75;;;;;;;-141.84;57.74;22414.09;5035409;28;20253;-63
2023/08/12 07:48:52;;;;;;;4.70;3.85;;;;;;;-141.84;57.72;22424.25;5043760;28;20263;-62
2023/08/12 07:51:21;;;;;;;8.00;4.28;;;;;;;-141.84;57.77;22471.03;5043009;28;20240;-63
2023/08/12 07:53:51;;;;;;;3.92;3.63;;;;;;;-141.84;57.41;22473.06;5057799;28;20315;-63
2023/08/12 07:56:19;;;;;;;4.25;3.90;;;;;;;-141.84;57.74;22452.72;5049665;28;20275;-61
2023/08/12 07:58:48;;;;;;;4.03;3.63;;;;;;;-141.84;57.07;22521.88;5031744;28;20269;-62
2023/08/12 08:01:16;;;;;;;4.00;3.70;;;;;;;-141.84;57.26;22469.00;5022707;28;20706;-64
2023/08/12 08:03:46;;;;;;;4.40;4.00;;;;;;;-141.84;57.10;22489.34;5023283;28;20203;-62
2023/08/12 08:06:14;;;;;;;4.38;4.00;;;;;;;-141.84;56.66;22548.31;5022758;28;20291;-63
2023/08/12 08:08:43;;;;;;;4.20;3.80;;;;;;;-141.84;57.29;22489.34;5014794;28;20590;-62
2023/08/12 08:11:13;;;;;;;4.22;3.78;;;;;;;-141.84;57.18;22548.31;5023103;28;20238;-63
2023/08/12 08:13:41;;;;;;;4.82;4.43;;;;;;;-141.84;56.17;22570.69;5021128;28;20320;-62
2023/08/12 08:16:10;;;;;;;4.43;4.07;;;;;;;-141.84;56.72;22544.25;5022644;28;20237;-62
2023/08/12 08:18:38;;;;;;;4.15;3.85;;;;;;;-141.84;57.34;22525.94;5021053;28;20633;-62
2023/08/12 08:21:07;;;;;;;5.47;4.20;;;;;;;-141.84;57.08;22509.69;5039241;28;20237;-63
2023/08/12 08:23:35;;;;;;;4.55;3.90;;;;;;;-141.84;57.57;22477.13;5042559;28;20332;-62
2023/08/12 08:26:04;;;;;;;4.18;3.60;;;;;;;-141.84;57.76;22473.06;5042332;28;20304;-63
2023/08/12 08:28:34;;;;;;;4.30;4.00;;;;;;;-141.84;57.81;22493.41;5033799;28;20304;-63
2023/08/12 08:31:03;;;;;;;3.97;3.60;;;;;;;-141.84;58.39;22481.22;5041245;28;20300;-62
2023/08/12 08:33:31;;;;;;;4.95;3.72;;;;;;;-141.84;57.87;22436.47;5042663;28;20284;-63
2023/08/12 08:36:00;;;;;;;5.00;4.53;;;;;;;-141.84;57.97;22444.59;5025992;28;20257;-62
2023/08/12 08:38:28;;;;;;;5.85;3.85;;;;;;;-141.84;57.51;22452.72;5014411;28;20238;-61
2023/08/12 08:40:59;;;;;;;4.10;3.80;;;;;;;-141.84;58.18;22408.00;5021972;28;20264;-62
2023/08/12 08:43:29;;;;;;;4.47;3.80;;;;;;;-141.84;58.23;22334.78;5021884;28;20300;-63
2023/08/12 08:46:00;;;;;;;4.10;3.80;;;;;;;-141.84;58.63;22320.53;5022693;28;20296;-63
2023/08/12 08:48:30;;;;;;;4.20;3.80;;;;;;;-141.84;58.99;22267.66;5033806;28;20739;-62
2023/08/12 08:51:01;;;;;;;4.22;3.92;;;;;;;-141.84;59.83;22271.72;5042226;28;20264;-61
2023/08/12 08:53:29;;;;;;;4.60;4.15;;;;;;;-141.84;60.79;22200.56;5022228;28;20240;-62
2023/08/12 08:55:59;;;;;;;4.57;4.15;;;;;;;-141.84;61.03;22182.25;5039942;28;20240;-62
2023/08/12 08:58:29;;;;;;;4.53;4.13;;;;;;;-141.84;60.75;22157.84;5045115;28;20229;-61
2023/08/12 09:01:00;;;;;;;5.75;4.25;;;;;;;-141.84;60.73;22184.28;5042573;28;20233;-60
2023/08/12 09:03:29;;;;;;;4.40;4.00;;;;;;;-141.84;60.68;22135.47;5041623;28;20268;-62
2023/08/12 09:05:59;;;;;;;4.45;4.13;;;;;;;-141.84;61.50;22135.47;5042162;28;20312;-62
2023/08/12 09:08:28;;;;;;;4.60;4.20;;;;;;;-141.84;61.07;22155.81;5037725;28;20308;-62
2023/08/12 09:10:58;;;;;;;4.30;3.90;;;;;;;-141.84;61.08;22192.44;5046539;28;20667;-62
2023/08/12 09:13:26;;;;;;;4.43;4.03;;;;;;;-141.84;59.94;22281.91;5045445;28;20304;-61
2023/08/12 09:15:55;;;;;;;5.60;4.10;;;;;;;-141.84;59.97;22324.59;5046476;28;20205;-63
2023/08/12 09:18:25;;;;;;;4.65;3.85;;;;;;;-141.84;59.17;22387.66;5042830;28;20735;-63
2023/08/12 09:20:53;;;;;;;4.65;4.25;;;;;;;-141.84;58.61;22436.47;5045799;28;20750;-63
2023/08/12 09:23:22;;;;;;;3.72;3.42;;;;;;;-141.84;58.14;22497.47;5045395;28;20664;-61
2023/08/12 09:25:51;;;;;;;3.85;3.55;;;;;;;-141.84;57.50;22536.13;5045749;28;20661;-61
2023/08/12 09:28:19;;;;;;;4.03;3.72;;;;;;;-141.84;56.50;22599.16;5042582;28;20584;-63
2023/08/12 09:30:53;;;;;;;3.83;3.53;;;;;;;-141.84;56.63;22574.75;5045633;28;20205;-62
2023/08/12 09:33:27;;;;;;;5.82;3.80;;;;;;;-141.84;56.57;22593.06;5045673;28;20299;-63
2023/08/12 09:35:57;;;;;;;4.30;4.00;;;;;;;-141.84;56.41;22652.03;5045724;28;20327;-63
2023/08/12 09:38:27;;;;;;;4.75;4.35;;;;;;;-141.84;56.19;22684.59;5036791;28;20255;-62
2023/08/12 09:40:58;;;;;;;3.85;3.58;;;;;;;-141.84;56.18;22747.63;5045145;28;20235;-62
2023/08/12 09:43:29;;;;;;;4.68;4.25;;;;;;;-141.84;54.53;22892.03;5044869;28;20351;-63
2023/08/12 09:45:59;;;;;;;3.70;3.45;;;;;;;-141.84;52.89;23044.59;5045876;28;20201;-63
2023/08/12 09:48:29;;;;;;;3.70;3.40;;;;;;;-141.84;51.61;23144.25;5037691;28;20237;-62
2023/08/12 09:50:58;;;;;;;3.92;3.60;;;;;;;-141.84;52.07;23144.25;5045580;28;20221;-62
2023/08/12 09:53:28;;;;;;;4.40;4.03;;;;;;;-141.84;50.05;23327.34;5025391;28;20612;-61
2023/08/12 09:56:00;;;;;;;3.75;3.45;;;;;;;-141.84;49.81;23347.69;5042341;28;20776;-63
2023/08/12 09:58:29;;;;;;;4.40;4.00;;;;;;;-141.84;51.28;23205.28;5048361;28;20316;-63
2023/08/12 10:00:59;;;;;;;4.50;4.10;;;;;;;-141.84;51.66;23180.88;5045987;28;20236;-62
2023/08/12 10:03:30;;;;;;;4.25;3.88;;;;;;;-141.84;51.43;23174.78;5045165;28;20319;-62
2023/08/12 10:05:59;;;;;;;4.22;3.83;;;;;;;-141.84;51.88;23105.63;5044713;28;20233;-63
2023/08/12 10:08:29;;;;;;;4.40;4.07;;;;;;;-141.84;52.29;23046.63;5035724;28;20715;-63
2023/08/12 10:10:58;;;;;;;3.90;3.60;;;;;;;-141.84;52.72;22991.72;5044994;28;20243;-62
2023/08/12 10:13:41;;;;;;;3.92;3.35;;;;;;;-141.84;52.25;23064.94;5040943;28;20243;-61
2023/08/12 10:16:10;;;;;;;4.43;3.88;;;;;;;-141.84;50.55;23217.50;5022755;28;20241;-64
2023/08/12 10:18:41;;;;;;;7.70;3.90;;;;;;;-141.84;50.50;23307.00;5026891;28;20700;-63
2023/08/12 10:21:12;;;;;;;3.83;3.53;;;;;;;-141.84;51.05;23174.78;5044196;28;20321;-63
2023/08/12 10:23:42;;;;;;;5.32;4.32;;;;;;;-141.84;50.75;23189.00;5039175;28;20267;-61
2023/08/12 10:26:16;;;;;;;6.25;3.72;;;;;;;-141.84;52.27;23044.59;5033759;28;20225;-64
2023/08/12 10:28:45;;;;;;;4.97;3.95;;;;;;;-141.84;54.06;22906.28;5018643;28;20787;-62
2023/08/12 10:31:14;;;;;;;4.35;3.92;;;;;;;-141.84;54.34;22835.09;5022976;28;20218;-63
2023/08/12 10:33:44;;;;;;;4.20;3.80;;;;;;;-141.84;55.08;22804.59;5023819;28;20221;-62
2023/08/12 10:36:13;;;;;;;4.15;3.63;;;;;;;-141.84;56.27;22660.19;5024922;28;20265;-64
2023/08/12 10:38:42;;;;;;;4.45;3.90;;;;;;;-141.84;56.99;22564.59;5017016;28;20229;-61
2023/08/12 10:41:20;;;;;;;4.35;3.95;;;;;;;-141.84;57.46;22532.06;5024714;28;20233;-62
2023/08/12 10:43:56;;;;;;;4.03;3.65;;;;;;;-141.84;57.95;22479.16;5023364;28;20237;-62
2023/08/12 10:46:29;;;;;;;4.35;4.05;;;;;;;-141.84;58.14;22505.59;5016596;28;20235;-61
2023/08/12 10:49:03;;;;;;;4.50;4.20;;;;;;;-141.84;59.36;22448.66;5024896;28;20213;-62
2023/08/12 10:51:45;;;;;;;4.50;4.10;;;;;;;-141.84;60.24;22367.31;5044493;28;20244;-61
2023/08/12 10:54:18;;;;;;;4.30;3.88;;;;;;;-141.84;61.46;22330.72;5044076;28;20310;-62
2023/08/12 10:57:07;;;;;;;4.38;3.97;;;;;;;-141.84;61.93;22290.03;5025924;28;20344;-61
2023/08/12 10:59:55;;;;;;;4.82;4.35;;;;;;;-141.84;63.44;22235.13;5024020;28;20280;-63
2023/08/12 11:02:28;;;;;;;5.07;4.43;;;;;;;-141.84;64.39;22224.97;5027185;28;20282;-61
2023/08/12 11:05:02;;;;;;;4.95;4.55;;;;;;;-141.84;64.62;22218.84;5044077;28;20282;-62
2023/08/12 11:07:35;;;;;;;5.05;4.60;;;;;;;-141.84;64.82;22218.84;5044248;28;20309;-61
2023/08/12 11:10:12;;;;;;;5.00;4.60;;;;;;;-141.84;63.97;22273.78;5043638;28;20209;-63
2023/08/12 11:12:43;;;;;;;4.75;4.35;;;;;;;-141.84;64.02;22257.50;5036649;28;20752;-61